createdAt,value
2022-10-17T00:00:52.538Z,15.21
2022-10-17T00:03:54.338Z,15.08
2022-10-17T00:06:56.165Z,14.86
2022-10-17T00:09:57.968Z,14.35
2022-10-17T00:12:59.781Z,14.44
2022-10-17T00:16:01.581Z,13.72
2022-10-17T00:19:04.099Z,14.36
2022-10-17T00:22:05.897Z,14.62
2022-10-17T00:25:07.870Z,13.89
2022-10-17T00:28:10.470Z,14.33
2022-10-17T00:31:12.270Z,14.89
2022-10-17T00:34:14.055Z,14.60
2022-10-17T00:37:15.969Z,14.86
2022-10-17T00:40:17.916Z,14.53
2022-10-17T00:43:19.744Z,13.83
2022-10-17T00:46:22.028Z,13.46
2022-10-17T00:49:24.406Z,13.80
2022-10-17T00:52:27.101Z,13.33
2022-10-17T00:55:31.468Z,13.47
2022-10-17T00:58:33.252Z,14.58
2022-10-17T01:01:35.115Z,14.02
2022-10-17T01:04:37.419Z,14.20
2022-10-17T01:07:39.611Z,13.62
2022-10-17T01:10:47.502Z,13.48
2022-10-17T01:13:53.832Z,13.24
2022-10-17T01:16:59.318Z,13.53
2022-10-17T01:20:10.465Z,14.04
2022-10-17T01:23:24.562Z,14.34
2022-10-17T01:26:32.451Z,14.00
2022-10-17T01:29:36.997Z,13.30
2022-10-17T01:32:55.331Z,13.62
2022-10-17T01:36:04.782Z,13.67
2022-10-17T01:39:13.502Z,13.61
2022-10-17T01:42:17.574Z,13.49
2022-10-17T01:45:33.159Z,14.00
2022-10-17T01:48:35.718Z,13.19
2022-10-17T01:51:42.202Z,13.28
2022-10-17T01:54:45.777Z,13.95
2022-10-17T01:57:51.683Z,13.81
2022-10-17T02:00:53.504Z,13.31
2022-10-17T02:03:55.318Z,13.78
2022-10-17T02:06:57.210Z,14.12
2022-10-17T02:09:58.997Z,13.25
2022-10-17T02:13:12.168Z,13.99
2022-10-17T02:16:32.534Z,13.93
2022-10-17T02:19:40.103Z,14.06
2022-10-17T02:22:41.844Z,14.05
2022-10-17T02:25:51.898Z,14.40
2022-10-17T02:28:59.821Z,14.75
2022-10-17T02:32:04.054Z,14.82
2022-10-17T02:35:06.119Z,14.21
2022-10-17T02:38:08.160Z,13.21
2022-10-17T02:41:10.640Z,13.04
2022-10-17T02:44:12.439Z,13.93
2022-10-17T02:47:22.226Z,14.11
2022-10-17T02:53:44.697Z,13.94
2022-10-17T02:56:48.964Z,14.55
2022-10-17T02:59:50.784Z,14.19
2022-10-17T03:02:53.197Z,14.15
2022-10-17T03:05:55.067Z,14.14
2022-10-17T03:08:56.858Z,13.81
2022-10-17T03:11:58.688Z,13.90
2022-10-17T03:15:00.470Z,14.41
2022-10-17T03:18:02.276Z,14.55
2022-10-17T03:21:04.135Z,14.56
2022-10-17T03:24:06.077Z,14.09
2022-10-17T03:27:07.906Z,14.35
2022-10-17T03:30:10.019Z,13.89
2022-10-17T03:33:11.851Z,13.73
2022-10-17T03:36:14.587Z,13.57
2022-10-17T03:39:16.407Z,12.80
2022-10-17T03:42:18.390Z,12.77
2022-10-17T03:45:20.193Z,13.80
2022-10-17T03:48:22.015Z,13.90
2022-10-17T03:51:23.949Z,13.40
2022-10-17T03:54:25.815Z,13.40
2022-10-17T03:57:27.936Z,13.13
2022-10-17T04:00:30.018Z,13.45
2022-10-17T04:03:31.858Z,13.62
2022-10-17T04:06:33.630Z,13.19
2022-10-17T04:09:35.434Z,13.45
2022-10-17T04:12:37.230Z,12.83
2022-10-17T04:15:39.058Z,13.60
2022-10-17T04:18:51.544Z,13.87
2022-10-17T04:22:02.456Z,13.70
2022-10-17T04:25:12.934Z,12.66
2022-10-17T04:28:20.833Z,12.70
2022-10-17T04:31:37.317Z,13.30
2022-10-17T04:34:45.396Z,12.76
2022-10-17T04:37:48.963Z,13.34
2022-10-17T04:40:57.433Z,13.61
2022-10-17T04:44:11.257Z,13.93
2022-10-17T04:47:20.946Z,13.65
2022-10-17T04:50:47.252Z,13.94
2022-10-17T04:53:56.493Z,14.04
2022-10-17T04:57:01.033Z,13.86
2022-10-17T05:03:21.503Z,13.37
2022-10-17T05:06:37.774Z,13.59
2022-10-17T05:10:01.797Z,13.28
2022-10-17T05:13:20.989Z,13.65
2022-10-17T05:16:29.814Z,13.76
2022-10-17T05:19:33.826Z,13.66
2022-10-17T05:22:39.772Z,13.77
2022-10-17T05:25:53.570Z,13.96
2022-10-17T05:29:05.355Z,13.96
2022-10-17T05:32:15.148Z,13.69
2022-10-17T05:35:31.159Z,14.06
2022-10-17T05:38:38.465Z,13.73
2022-10-17T05:41:40.543Z,13.19
2022-10-17T05:44:44.495Z,13.82
2022-10-17T05:47:47.911Z,14.15
2022-10-17T05:50:56.679Z,14.35
2022-10-17T05:54:03.491Z,14.75
2022-10-17T05:57:06.060Z,15.26
2022-10-17T06:00:10.978Z,15.28
2022-10-17T06:06:24.794Z,15.45
2022-10-17T06:09:26.751Z,15.68
2022-10-17T06:12:28.977Z,16.95
2022-10-17T06:15:31.011Z,17.32
2022-10-17T06:18:33.048Z,17.86
2022-10-17T06:21:37.845Z,18.07
2022-10-17T06:24:39.770Z,18.39
2022-10-17T06:27:41.706Z,19.91
2022-10-17T06:30:44.247Z,20.38
2022-10-17T06:33:47.516Z,20.19
2022-10-17T06:36:49.525Z,17.62
2022-10-17T06:39:51.945Z,18.79
2022-10-17T06:42:53.980Z,19.87
2022-10-17T06:49:02.575Z,20.18
2022-10-17T06:52:04.967Z,19.67
2022-10-17T06:55:07.535Z,20.98
2022-10-17T06:58:09.595Z,20.82
2022-10-17T07:01:13.756Z,20.60
2022-10-17T07:04:16.274Z,19.02
2022-10-17T07:07:18.586Z,19.33
2022-10-17T07:10:20.825Z,18.42
2022-10-17T07:13:23.057Z,18.65
2022-10-17T07:16:24.897Z,19.42
2022-10-17T07:19:30.123Z,21.60
2022-10-17T07:22:32.255Z,23.37
2022-10-17T07:25:36.434Z,22.27
2022-10-17T07:28:42.681Z,20.68
2022-10-17T07:31:45.874Z,19.06
2022-10-17T07:34:47.806Z,19.57
2022-10-17T07:37:50.782Z,19.89
2022-10-17T07:40:58.756Z,18.56
2022-10-17T07:44:00.871Z,16.67
2022-10-17T07:47:02.685Z,16.37
2022-10-17T07:50:05.458Z,17.49
2022-10-17T07:53:07.373Z,16.91
2022-10-17T07:56:11.436Z,17.05
2022-10-17T07:59:13.302Z,17.08
2022-10-17T08:02:20.845Z,16.99
2022-10-17T08:05:22.743Z,16.52
2022-10-17T08:08:24.728Z,17.00
2022-10-17T08:11:26.552Z,16.34
2022-10-17T08:14:28.431Z,17.11
2022-10-17T08:17:30.232Z,17.62
2022-10-17T08:20:32.178Z,17.76
2022-10-17T08:23:34.232Z,16.35
2022-10-17T08:26:39.243Z,16.17
2022-10-17T08:29:48.435Z,16.51
2022-10-17T08:32:50.649Z,16.90
2022-10-17T08:35:52.449Z,16.97
2022-10-17T08:38:54.320Z,16.87
2022-10-17T08:42:05.306Z,17.40
2022-10-17T08:45:16.605Z,18.13
2022-10-17T08:48:19.236Z,17.55
2022-10-17T08:51:28.696Z,17.68
2022-10-17T08:54:35.372Z,18.44
2022-10-17T08:57:37.229Z,18.23
2022-10-17T09:00:39.165Z,17.86
2022-10-17T09:03:59.634Z,17.95
2022-10-17T09:07:20.195Z,18.94
2022-10-17T09:10:31.443Z,17.71
2022-10-17T09:13:48.674Z,17.92
2022-10-17T09:16:59.967Z,18.71
2022-10-17T09:20:12.021Z,18.06
2022-10-17T09:23:16.621Z,18.37
2022-10-17T09:26:18.666Z,18.53
2022-10-17T09:29:22.143Z,18.79
2022-10-17T09:32:24.566Z,19.45
2022-10-17T09:35:27.652Z,18.63
2022-10-17T09:38:41.619Z,19.81
2022-10-17T09:41:47.265Z,19.68
2022-10-17T09:44:51.856Z,19.82
2022-10-17T09:47:58.363Z,19.49
2022-10-17T09:51:14.984Z,20.38
2022-10-17T09:54:26.264Z,20.78
2022-10-17T09:57:28.239Z,21.22
2022-10-17T10:00:30.170Z,21.53
2022-10-17T10:03:32.125Z,21.54
2022-10-17T10:06:34.085Z,22.35
2022-10-17T10:09:39.394Z,24.42
2022-10-17T10:12:42.255Z,25.52
2022-10-17T10:15:48.018Z,23.96
2022-10-17T10:18:51.179Z,23.85
2022-10-17T10:22:00.457Z,23.02
2022-10-17T10:25:09.076Z,22.58
2022-10-17T10:28:11.716Z,22.64
2022-10-17T10:31:13.593Z,22.86
2022-10-17T10:34:16.677Z,23.92
2022-10-17T10:37:22.271Z,23.51
2022-10-17T10:40:28.934Z,23.88
2022-10-17T10:43:33.595Z,23.45
2022-10-17T10:46:35.801Z,23.35
2022-10-17T10:49:40.664Z,23.32
2022-10-17T10:52:43.841Z,24.06
2022-10-17T10:55:52.984Z,23.72
2022-10-17T10:59:00.596Z,23.85
2022-10-17T11:02:05.409Z,22.40
2022-10-17T11:05:13.215Z,23.71
2022-10-17T11:08:15.161Z,22.68
2022-10-17T11:11:23.827Z,22.64
2022-10-17T11:14:32.135Z,22.01
2022-10-17T11:17:42.315Z,22.83
2022-10-17T11:20:44.458Z,22.95
2022-10-17T11:23:53.799Z,24.80
2022-10-17T11:26:59.247Z,26.50
2022-10-17T11:30:01.288Z,28.92
2022-10-17T11:33:03.384Z,26.65
2022-10-17T11:36:06.500Z,25.80
2022-10-17T11:39:12.223Z,23.80
2022-10-17T11:42:15.833Z,24.12
2022-10-17T11:45:18.707Z,23.56
2022-10-17T11:48:25.434Z,24.64
2022-10-17T11:54:50.919Z,24.45
2022-10-17T11:58:13.037Z,23.72
2022-10-17T12:01:16.945Z,24.25
2022-10-17T12:04:31.261Z,24.84
2022-10-17T12:10:45.078Z,23.10
2022-10-17T12:13:47.773Z,22.76
2022-10-17T12:16:49.672Z,24.21
2022-10-17T12:19:51.945Z,23.36
2022-10-17T12:23:03.222Z,23.39
2022-10-17T12:26:06.270Z,24.45
2022-10-17T12:29:16.961Z,24.74
2022-10-17T12:32:18.803Z,24.65
2022-10-17T12:35:21.220Z,24.02
2022-10-17T12:38:24.362Z,24.72
2022-10-17T12:41:38.208Z,25.59
2022-10-17T12:44:40.059Z,26.02
2022-10-17T12:47:41.944Z,24.60
2022-10-17T12:51:34.251Z,24.15
2022-10-17T12:54:27.116Z,26.36
2022-10-17T12:57:33.790Z,25.98
2022-10-17T13:00:36.543Z,25.28
2022-10-17T13:03:41.919Z,26.67
2022-10-17T13:06:45.310Z,26.21
2022-10-17T13:09:47.301Z,27.98
2022-10-17T13:12:49.431Z,28.81
2022-10-17T13:15:52.186Z,27.44
2022-10-17T13:18:54.274Z,27.80
2022-10-17T13:22:00.956Z,29.67
2022-10-17T13:25:10.172Z,29.78
2022-10-17T13:28:13.259Z,31.21
2022-10-17T13:31:28.848Z,31.84
2022-10-17T13:34:31.803Z,30.16
2022-10-17T13:37:34.397Z,32.92
2022-10-17T13:40:50.783Z,31.71
2022-10-17T13:43:53.173Z,30.48
2022-10-17T13:46:55.186Z,30.73
2022-10-17T13:49:57.069Z,29.64
2022-10-17T13:53:17.559Z,26.73
2022-10-17T13:56:28.424Z,28.35
2022-10-17T13:59:33.304Z,25.94
2022-10-17T14:02:35.367Z,26.36
2022-10-17T14:05:43.662Z,25.89
2022-10-17T14:08:48.633Z,24.69
2022-10-17T14:12:16.693Z,24.26
2022-10-17T14:15:18.523Z,24.24
2022-10-17T14:18:35.044Z,24.70
2022-10-17T14:21:44.210Z,24.74
2022-10-17T14:24:46.911Z,24.32
2022-10-17T14:28:04.316Z,23.72
2022-10-17T14:31:14.472Z,22.79
2022-10-17T14:34:20.327Z,23.65
2022-10-17T14:37:31.725Z,24.05
2022-10-17T14:40:34.007Z,23.69
2022-10-17T14:43:36.015Z,24.09
2022-10-17T14:46:38.999Z,23.64
2022-10-17T14:49:41.038Z,24.15
2022-10-17T14:52:49.563Z,23.66
2022-10-17T14:55:58.615Z,23.07
2022-10-17T14:59:02.827Z,22.88
2022-10-17T15:02:04.711Z,23.35
2022-10-17T15:05:10.762Z,23.32
2022-10-17T15:08:16.107Z,23.71
2022-10-17T15:11:20.512Z,23.88
2022-10-17T15:14:22.531Z,23.74
2022-10-17T15:17:25.662Z,23.21
2022-10-17T15:20:29.534Z,22.71
2022-10-17T15:23:31.392Z,23.26
2022-10-17T15:26:33.829Z,23.31
2022-10-17T15:29:36.314Z,23.08
2022-10-17T15:32:38.247Z,22.60
2022-10-17T15:35:40.101Z,22.41
2022-10-17T15:38:41.976Z,22.63
2022-10-17T15:41:44.231Z,21.96
2022-10-17T15:44:49.503Z,23.10
2022-10-17T15:47:55.366Z,23.28
2022-10-17T15:50:57.308Z,23.09
2022-10-17T15:54:01.688Z,23.05
2022-10-17T15:57:04.089Z,22.98
2022-10-17T16:00:07.134Z,22.94
2022-10-17T16:03:09.208Z,22.78
2022-10-17T16:06:13.558Z,22.33
2022-10-17T16:09:16.299Z,22.87
2022-10-17T16:12:19.490Z,22.80
2022-10-17T16:15:23.046Z,22.29
2022-10-17T16:18:24.880Z,22.12
2022-10-17T16:21:27.938Z,22.16
2022-10-17T16:24:29.817Z,22.03
2022-10-17T16:27:31.658Z,21.43
2022-10-17T16:30:33.750Z,21.29
2022-10-17T16:33:36.090Z,21.71
2022-10-17T16:36:38.169Z,21.77
2022-10-17T16:39:40.071Z,21.90
2022-10-17T16:42:42.030Z,21.82
2022-10-17T16:45:43.883Z,21.68
2022-10-17T16:48:46.149Z,21.92
2022-10-17T16:51:48.029Z,21.40
2022-10-17T16:54:50.824Z,20.81
2022-10-17T16:57:52.716Z,21.11
2022-10-17T17:00:54.725Z,21.01
2022-10-17T17:03:56.838Z,21.20
2022-10-17T17:06:58.805Z,20.87
2022-10-17T17:10:00.649Z,20.87
2022-10-17T17:13:03.299Z,20.63
2022-10-17T17:16:06.095Z,20.74
2022-10-17T17:19:08.692Z,20.75
2022-10-17T17:22:10.489Z,20.80
2022-10-17T17:25:12.466Z,20.42
2022-10-17T17:28:14.254Z,20.42
2022-10-17T17:31:17.329Z,19.84
2022-10-17T17:34:19.157Z,19.99
2022-10-17T17:37:21.016Z,20.16
2022-10-17T17:40:22.853Z,19.71
2022-10-17T17:43:25.029Z,19.54
2022-10-17T17:46:27.020Z,19.75
2022-10-17T17:49:28.829Z,19.77
2022-10-17T17:52:31.023Z,19.41
2022-10-17T17:55:33.553Z,19.40
2022-10-17T17:58:35.661Z,19.31
2022-10-17T18:01:39.110Z,19.43
2022-10-17T18:04:41.248Z,19.20
2022-10-17T18:07:43.179Z,19.43
2022-10-17T18:10:48.959Z,18.85
2022-10-17T18:13:58.144Z,18.78
2022-10-17T18:17:00.128Z,18.86
2022-10-17T18:20:02.892Z,18.83
2022-10-17T18:23:04.796Z,18.99
2022-10-17T18:26:07.022Z,18.90
2022-10-17T18:29:09.289Z,18.89
2022-10-17T18:32:11.345Z,18.71
2022-10-17T18:35:13.274Z,18.71
2022-10-17T18:38:15.154Z,18.57
2022-10-17T18:41:18.033Z,18.21
2022-10-17T18:44:19.823Z,18.17
2022-10-17T18:47:21.720Z,17.87
2022-10-17T18:50:24.283Z,17.67
2022-10-17T18:53:26.136Z,17.84
2022-10-17T18:56:28.022Z,17.75
2022-10-17T18:59:29.800Z,18.17
2022-10-17T19:02:34.384Z,18.47
2022-10-17T19:05:39.837Z,17.70
2022-10-17T19:08:41.926Z,17.46
2022-10-17T19:11:43.809Z,18.11
2022-10-17T19:14:45.612Z,17.36
2022-10-17T19:17:47.460Z,17.78
2022-10-17T19:20:50.980Z,17.70
2022-10-17T19:23:54.946Z,17.23
2022-10-17T19:26:57.953Z,17.75
2022-10-17T19:29:59.816Z,17.19
2022-10-17T19:33:01.610Z,16.60
2022-10-17T19:36:07.834Z,16.28
2022-10-17T19:39:14.134Z,17.26
2022-10-17T19:42:16.052Z,16.60
2022-10-17T19:45:17.878Z,16.97
2022-10-17T19:48:19.738Z,16.75
2022-10-17T19:51:24.376Z,17.05
2022-10-17T19:54:26.345Z,16.60
2022-10-17T19:57:28.269Z,16.95
2022-10-17T20:00:30.138Z,16.79
2022-10-17T20:03:31.959Z,16.48
2022-10-17T20:06:33.793Z,17.16
2022-10-17T20:09:35.787Z,16.62
2022-10-17T20:12:37.759Z,16.86
2022-10-17T20:15:39.831Z,16.41
2022-10-17T20:18:41.711Z,16.30
2022-10-17T20:21:43.784Z,16.09
2022-10-17T20:24:46.039Z,16.44
2022-10-17T20:27:47.911Z,16.32
2022-10-17T20:30:49.759Z,16.12
2022-10-17T20:33:55.658Z,15.95
2022-10-17T20:36:57.571Z,16.29
2022-10-17T20:40:22.788Z,15.44
2022-10-17T20:43:21.256Z,16.17
2022-10-17T20:46:35.945Z,16.42
2022-10-17T20:49:38.502Z,16.51
2022-10-17T20:52:40.320Z,16.34
2022-10-17T20:55:42.544Z,16.81
2022-10-17T20:58:44.321Z,15.98
2022-10-17T21:01:46.630Z,15.83
2022-10-17T21:04:49.888Z,15.41
2022-10-17T21:07:51.747Z,15.57
2022-10-17T21:10:53.586Z,15.82
2022-10-17T21:13:56.577Z,15.75
2022-10-17T21:17:03.756Z,16.13
2022-10-17T21:20:07.092Z,16.45
2022-10-17T21:23:08.975Z,16.31
2022-10-17T21:26:12.736Z,16.69
2022-10-17T21:29:14.641Z,16.76
2022-10-17T21:32:31.834Z,16.27
2022-10-17T21:35:38.323Z,15.92
2022-10-17T21:38:40.354Z,16.30
2022-10-17T21:41:42.417Z,16.55
2022-10-17T21:44:44.452Z,16.43
2022-10-17T21:48:11.168Z,15.88
2022-10-17T21:51:09.273Z,15.98
2022-10-17T21:54:11.329Z,16.06
2022-10-17T21:57:13.316Z,16.11
2022-10-17T22:00:15.274Z,15.82
2022-10-17T22:07:05.356Z,16.33
2022-10-17T22:10:07.435Z,16.22
2022-10-17T22:13:09.319Z,16.17
2022-10-17T22:16:12.230Z,16.30
2022-10-17T22:19:15.349Z,16.06
2022-10-17T22:22:17.189Z,15.74
2022-10-17T22:25:18.986Z,15.24
2022-10-17T22:28:20.926Z,14.99
2022-10-17T22:31:23.079Z,15.60
2022-10-17T22:34:24.972Z,14.79
2022-10-17T22:37:26.774Z,14.73
2022-10-17T22:40:28.662Z,14.83
2022-10-17T22:43:30.608Z,14.81
2022-10-17T22:46:32.783Z,14.34
2022-10-17T22:49:34.723Z,14.34
2022-10-17T22:52:36.788Z,14.92
2022-10-17T22:55:38.621Z,15.26
2022-10-17T22:58:40.638Z,14.97
2022-10-17T23:01:42.511Z,14.24
2022-10-17T23:04:44.400Z,14.01
2022-10-17T23:07:46.291Z,14.02
2022-10-17T23:10:48.153Z,14.07
2022-10-17T23:13:50.049Z,14.39
2022-10-17T23:16:51.883Z,14.58
2022-10-17T23:19:55.569Z,14.21
2022-10-17T23:22:59.481Z,14.11
2022-10-17T23:26:05.297Z,14.40
2022-10-17T23:29:07.260Z,14.38
2022-10-17T23:32:09.189Z,13.94
2022-10-17T23:35:11.246Z,13.44
2022-10-17T23:38:13.057Z,14.05
2022-10-17T23:41:15.036Z,14.87
2022-10-17T23:44:16.997Z,14.46
2022-10-17T23:47:18.946Z,14.73
2022-10-17T23:50:20.746Z,14.28
2022-10-17T23:53:23.142Z,14.18
2022-10-17T23:56:24.966Z,13.96
2022-10-17T23:59:26.838Z,14.16
